Fairview Hill, Kentucky
Current Conditions -  °F | °C
As of 1:51 PM on Sunday 23 Nov 2014 (Local Time) from KHTS Reporting Station
Broken Clouds Broken Clouds  
Wind Chill: 65°   Ceiling: 11000
Heat Index: 65°   Visibility: 10mi
Dew Point: 42°   Wind: 8mph
Humidity: 43%   Direction: 160°SSE
Pressure: 29.83"   Gusts: NA
Location:  38.234°N, 82.9152°W
Report Text: KHTS 231851Z 16007KT 10SM SCT090 BKN110 18/06 A2983 RMK AO2 SLP100 T01830056
Loading
Personal Weather Stations






























Interactive Weather Map New forecast layout! Learn more

10-Day Weather Forecast

Advertisements
Track Severe Weather on mobile